Claremont, Minnesota
Current Conditions -  °F | °C
As of 4:34 AM on Monday 22 Dec 2014 (Local Time) from KTOB Reporting Station
Haze Haze  
Wind Chill: 26°   Ceiling: 300
Heat Index: 36°   Visibility: 1.2mi
Dew Point: 36°   Wind: 16mph
Humidity: 100%   Direction: 160°SSE
Pressure: 29.68"   Gusts: NA
Location:  44.04°N, 93°W
Report Text: KTOB 221034Z AUTO 16014KT 1 1/4SM BR OVC003 02/02 A2968 RMK AO2
Loading
Personal Weather Stations






























Interactive Weather Map New forecast layout! Learn more

10-Day Weather Forecast

Advertisements
Track Severe Weather on mobile